createdAt,value
2019-01-15T00:01:09.461Z,3.93
2019-01-15T00:03:38.689Z,8.97
2019-01-15T00:06:07.866Z,5.30
2019-01-15T00:08:38.125Z,4.63
2019-01-15T00:11:07.309Z,4.10
2019-01-15T00:13:36.489Z,5.30
2019-01-15T00:16:05.738Z,7.30
2019-01-15T00:18:34.914Z,11.40
2019-01-15T00:21:04.217Z,5.90
2019-01-15T00:23:33.377Z,3.63
2019-01-15T00:26:02.574Z,3.47
2019-01-15T00:28:31.896Z,4.30
2019-01-15T00:31:01.065Z,3.23
2019-01-15T00:33:30.243Z,3.17
2019-01-15T00:35:59.421Z,7.27
2019-01-15T00:38:28.645Z,4.77
2019-01-15T00:40:58.915Z,4.57
2019-01-15T00:43:28.090Z,2.80
2019-01-15T00:45:57.346Z,3.37
2019-01-15T00:48:26.523Z,5.00
2019-01-15T00:50:55.680Z,3.50
2019-01-15T00:53:24.866Z,6.50
2019-01-15T00:55:54.052Z,2.50
2019-01-15T00:58:23.218Z,4.53
2019-01-15T01:00:52.404Z,5.20
2019-01-15T01:03:21.593Z,3.20
2019-01-15T01:05:50.764Z,2.30
2019-01-15T01:08:20.030Z,7.00
2019-01-15T01:10:49.202Z,6.80
2019-01-15T01:13:18.394Z,6.70
2019-01-15T01:15:48.663Z,2.30
2019-01-15T01:18:17.853Z,4.77
2019-01-15T01:20:47.030Z,2.20
2019-01-15T01:23:16.294Z,3.50
2019-01-15T01:25:45.810Z,4.23
2019-01-15T01:28:14.986Z,1.93
2019-01-15T01:30:44.170Z,4.93
2019-01-15T01:33:13.353Z,2.73
2019-01-15T01:35:42.589Z,3.63
2019-01-15T01:38:11.750Z,4.33
2019-01-15T01:40:40.932Z,1.93
2019-01-15T01:43:10.127Z,2.90
2019-01-15T01:45:39.304Z,2.30
2019-01-15T01:48:08.510Z,2.73
2019-01-15T01:50:37.682Z,4.17
2019-01-15T01:53:07.003Z,7.03
2019-01-15T01:55:36.168Z,4.90
2019-01-15T01:58:05.357Z,4.27
2019-01-15T02:00:34.540Z,8.23
2019-01-15T02:03:03.780Z,4.70
2019-01-15T02:05:32.960Z,3.80
2019-01-15T02:08:02.140Z,4.70
2019-01-15T02:10:31.323Z,5.07
2019-01-15T02:13:00.802Z,3.17
2019-01-15T02:15:29.989Z,3.37
2019-01-15T02:17:59.176Z,6.67
2019-01-15T02:20:28.365Z,4.67
2019-01-15T02:22:58.449Z,5.10
2019-01-15T02:25:27.631Z,2.90
2019-01-15T02:27:56.796Z,4.47
2019-01-15T02:30:25.999Z,5.07
2019-01-15T02:32:55.156Z,4.53
2019-01-15T02:35:24.393Z,4.93
2019-01-15T02:37:53.669Z,3.77
2019-01-15T02:40:22.899Z,2.77
2019-01-15T02:42:52.161Z,1.60
2019-01-15T02:45:21.639Z,4.93
2019-01-15T02:47:50.838Z,2.40
2019-01-15T02:50:21.516Z,10.57
2019-01-15T02:52:50.740Z,7.20
2019-01-15T02:55:20.098Z,3.67
2019-01-15T02:57:49.365Z,5.80
2019-01-15T03:00:25.359Z,5.33
2019-01-15T03:02:54.591Z,4.93
2019-01-15T03:05:24.371Z,10.23
2019-01-15T03:07:53.597Z,3.10
2019-01-15T03:10:23.038Z,3.80
2019-01-15T03:12:56.754Z,2.60
2019-01-15T03:15:23.552Z,4.00
2019-01-15T03:17:52.785Z,3.80
2019-01-15T03:20:21.992Z,2.30
2019-01-15T03:22:51.222Z,2.90
2019-01-15T03:25:20.501Z,7.03
2019-01-15T03:27:49.730Z,1.73
2019-01-15T03:30:21.045Z,3.00
2019-01-15T03:32:50.345Z,1.90
2019-01-15T03:35:19.824Z,3.87
2019-01-15T03:37:49.044Z,3.50
2019-01-15T03:40:23.237Z,2.30
2019-01-15T03:42:52.814Z,4.00
2019-01-15T03:45:22.091Z,6.70
2019-01-15T03:47:51.326Z,3.60
2019-01-15T03:50:20.532Z,2.97
2019-01-15T03:52:50.819Z,2.30
2019-01-15T03:55:20.166Z,3.67
2019-01-15T03:57:49.396Z,4.67
2019-01-15T04:00:21.314Z,5.07
2019-01-15T04:02:50.990Z,4.77
2019-01-15T04:05:20.194Z,5.13
2019-01-15T04:07:51.237Z,5.00
2019-01-15T04:10:20.432Z,6.20
2019-01-15T04:12:50.731Z,3.27
2019-01-15T04:15:19.978Z,5.03
2019-01-15T04:17:49.244Z,4.13
2019-01-15T04:20:18.736Z,2.40
2019-01-15T04:22:47.937Z,2.70
2019-01-15T04:25:17.154Z,7.03
2019-01-15T04:27:46.671Z,5.50
2019-01-15T04:30:19.083Z,4.83
2019-01-15T04:32:48.279Z,3.70
2019-01-15T04:35:17.496Z,7.70
2019-01-15T04:37:46.770Z,3.77
2019-01-15T04:40:18.611Z,5.03
2019-01-15T04:42:49.052Z,4.50
2019-01-15T04:45:20.028Z,2.80
2019-01-15T04:47:49.241Z,5.97
2019-01-15T04:50:19.015Z,4.67
2019-01-15T04:52:55.722Z,5.30
2019-01-15T04:55:24.955Z,6.40
2019-01-15T04:57:54.140Z,5.33
2019-01-15T05:00:23.541Z,4.07
2019-01-15T05:02:53.408Z,3.13
2019-01-15T05:05:22.627Z,3.80
2019-01-15T05:07:51.826Z,4.57
2019-01-15T05:10:21.047Z,4.60
2019-01-15T05:12:50.349Z,3.70
2019-01-15T05:15:19.549Z,3.20
2019-01-15T05:17:48.798Z,4.83
2019-01-15T05:20:19.124Z,4.40
2019-01-15T05:22:48.438Z,3.73
2019-01-15T05:25:19.684Z,4.57
2019-01-15T05:27:49.092Z,5.83
2019-01-15T05:30:23.769Z,6.80
2019-01-15T05:32:52.991Z,3.47
2019-01-15T05:35:22.266Z,6.00
2019-01-15T05:37:51.483Z,3.90
2019-01-15T05:40:20.897Z,4.53
2019-01-15T05:42:50.096Z,3.50
2019-01-15T05:45:30.546Z,2.70
2019-01-15T05:48:01.403Z,7.70
2019-01-15T05:50:41.454Z,3.17
2019-01-15T05:53:10.680Z,3.93
2019-01-15T05:55:39.887Z,4.43
2019-01-15T05:58:09.156Z,6.17
2019-01-15T06:00:38.466Z,5.30
2019-01-15T06:03:07.739Z,9.70
2019-01-15T06:05:36.954Z,6.20
2019-01-15T06:08:06.163Z,4.57
2019-01-15T06:10:35.396Z,6.20
2019-01-15T06:13:05.579Z,4.43
2019-01-15T06:15:34.787Z,6.20
2019-01-15T06:18:04.555Z,3.93
2019-01-15T06:20:33.787Z,3.73
2019-01-15T06:23:03.016Z,6.13
2019-01-15T06:25:32.228Z,3.60
2019-01-15T06:28:01.431Z,4.63
2019-01-15T06:30:30.659Z,3.60
2019-01-15T06:33:00.199Z,4.13
2019-01-15T06:35:29.395Z,3.63
2019-01-15T06:37:58.615Z,4.70
2019-01-15T06:40:27.810Z,5.57
2019-01-15T06:42:57.039Z,3.57
2019-01-15T06:45:31.335Z,9.23
2019-01-15T06:48:00.568Z,6.03
2019-01-15T06:50:29.755Z,9.50
2019-01-15T06:52:58.976Z,6.00
2019-01-15T06:55:28.179Z,4.33
2019-01-15T06:57:57.431Z,7.10
2019-01-15T07:00:31.670Z,8.53
2019-01-15T07:03:00.969Z,6.87
2019-01-15T07:05:30.172Z,7.20
2019-01-15T07:07:59.484Z,8.20
2019-01-15T07:10:34.696Z,7.17
2019-01-15T07:13:04.095Z,7.43
2019-01-15T07:15:33.381Z,4.53
2019-01-15T07:18:02.578Z,5.33
2019-01-15T07:20:31.796Z,5.37
2019-01-15T07:23:00.994Z,3.77
2019-01-15T07:25:30.762Z,5.20
2019-01-15T07:28:00.001Z,4.47
2019-01-15T07:30:38.407Z,10.40
2019-01-15T07:33:07.809Z,7.23
2019-01-15T07:35:37.006Z,10.67
2019-01-15T07:38:07.408Z,6.87
2019-01-15T07:40:36.677Z,8.67
2019-01-15T07:43:05.874Z,7.23
2019-01-15T07:45:36.070Z,5.37
2019-01-15T07:48:05.537Z,5.73
2019-01-15T07:50:35.069Z,5.23
2019-01-15T07:53:05.361Z,4.83
2019-01-15T07:55:34.576Z,5.17
2019-01-15T07:58:03.847Z,5.30
2019-01-15T08:00:33.399Z,4.43
2019-01-15T08:03:02.603Z,4.63
2019-01-15T08:05:32.011Z,5.57
2019-01-15T08:08:01.232Z,5.93
2019-01-15T08:10:30.457Z,5.00
2019-01-15T08:12:59.659Z,4.20
2019-01-15T08:15:29.116Z,7.80
2019-01-15T08:17:58.415Z,6.77
2019-01-15T08:20:27.618Z,7.50
2019-01-15T08:22:56.858Z,8.13
2019-01-15T08:25:26.080Z,6.10
2019-01-15T08:27:55.302Z,7.30
2019-01-15T08:30:30.158Z,5.93
2019-01-15T08:32:59.346Z,6.93
2019-01-15T08:35:29.316Z,10.37
2019-01-15T08:37:58.533Z,5.20
2019-01-15T08:40:28.483Z,5.80
2019-01-15T08:42:58.478Z,5.30
2019-01-15T08:45:27.676Z,5.17
2019-01-15T08:47:58.606Z,9.43
2019-01-15T08:50:30.221Z,6.83
2019-01-15T08:52:59.501Z,6.57
2019-01-15T08:55:28.901Z,7.80
2019-01-15T08:57:58.671Z,6.87
2019-01-15T09:00:27.875Z,6.77
2019-01-15T09:02:57.104Z,5.77
2019-01-15T09:05:26.387Z,5.57
2019-01-15T09:07:55.609Z,6.50
2019-01-15T09:10:24.816Z,5.47
2019-01-15T09:12:54.047Z,7.57
2019-01-15T09:15:23.381Z,6.33
2019-01-15T09:17:52.914Z,5.93
2019-01-15T09:20:22.670Z,6.63
2019-01-15T09:22:51.972Z,5.50
2019-01-15T09:25:21.535Z,5.53
2019-01-15T09:27:50.731Z,5.83
2019-01-15T09:30:21.904Z,5.53
2019-01-15T09:32:51.633Z,6.47
2019-01-15T09:35:20.866Z,7.83
2019-01-15T09:37:50.529Z,10.77
2019-01-15T09:40:21.790Z,6.97
2019-01-15T09:42:51.227Z,6.40
2019-01-15T09:45:22.399Z,7.17
2019-01-15T09:47:56.324Z,9.50
2019-01-15T09:50:25.545Z,8.43
2019-01-15T09:52:55.220Z,7.20
2019-01-15T09:55:24.443Z,7.57
2019-01-15T09:57:53.930Z,7.50
2019-01-15T10:00:23.224Z,10.93
2019-01-15T10:02:52.427Z,6.73
2019-01-15T10:05:22.943Z,7.70
2019-01-15T10:07:53.526Z,6.70
2019-01-15T10:10:22.751Z,6.23
2019-01-15T10:12:51.951Z,7.57
2019-01-15T10:15:21.811Z,5.87
2019-01-15T10:17:51.015Z,7.07
2019-01-15T10:20:20.314Z,8.03
2019-01-15T10:22:49.510Z,8.60
2019-01-15T10:25:26.288Z,8.53
2019-01-15T10:27:55.564Z,6.13
2019-01-15T10:30:32.568Z,6.80
2019-01-15T10:33:10.707Z,6.90
2019-01-15T10:35:52.822Z,6.90
2019-01-15T10:38:24.069Z,7.33
2019-01-15T10:40:55.047Z,9.30
2019-01-15T10:43:24.788Z,9.47
2019-01-15T10:45:54.063Z,9.00
2019-01-15T10:48:23.459Z,9.30
2019-01-15T10:50:52.741Z,8.97
2019-01-15T10:53:22.001Z,8.87
2019-01-15T10:55:51.589Z,7.53
2019-01-15T10:58:20.791Z,8.60
2019-01-15T11:00:50.003Z,9.10
2019-01-15T11:03:19.200Z,9.80
2019-01-15T11:05:48.407Z,9.00
2019-01-15T11:08:17.623Z,7.83
2019-01-15T11:10:46.836Z,8.73
2019-01-15T11:13:16.399Z,9.37
2019-01-15T11:15:45.595Z,9.90
2019-01-15T11:18:14.822Z,8.00
2019-01-15T11:20:44.087Z,8.13
2019-01-15T11:23:14.386Z,8.80
2019-01-15T11:25:43.583Z,8.77
2019-01-15T11:28:12.811Z,8.90
2019-01-15T11:30:42.327Z,9.70
2019-01-15T11:33:12.621Z,8.17
2019-01-15T11:35:42.160Z,8.43
2019-01-15T11:38:11.460Z,7.80
2019-01-15T11:40:40.707Z,13.20
2019-01-15T11:43:09.901Z,8.23
2019-01-15T11:45:39.493Z,8.80
2019-01-15T11:48:08.911Z,7.90
2019-01-15T11:50:38.139Z,9.87
2019-01-15T11:53:07.424Z,8.43
2019-01-15T11:55:36.653Z,8.23
2019-01-15T11:58:05.856Z,12.90
2019-01-15T12:00:36.791Z,8.40
2019-01-15T12:03:10.591Z,9.30
2019-01-15T12:05:47.176Z,9.00
2019-01-15T12:08:18.037Z,7.87
2019-01-15T12:11:01.195Z,8.47
2019-01-15T12:13:48.596Z,8.57
2019-01-15T12:16:22.460Z,8.30
2019-01-15T12:19:05.291Z,9.90
2019-01-15T12:21:48.077Z,7.27
2019-01-15T12:24:28.281Z,7.73
2019-01-15T12:27:08.162Z,7.60
2019-01-15T12:29:39.031Z,7.00
2019-01-15T12:32:19.078Z,8.40
2019-01-15T12:34:52.633Z,7.97
2019-01-15T12:37:32.640Z,7.40
2019-01-15T12:40:09.874Z,8.47
2019-01-15T12:42:50.802Z,10.30
2019-01-15T12:45:21.843Z,7.40
2019-01-15T12:47:55.343Z,10.13
2019-01-15T12:50:31.805Z,10.30
2019-01-15T12:53:08.479Z,8.97
2019-01-15T12:55:51.440Z,10.10
2019-01-15T12:58:25.072Z,7.97
2019-01-15T13:01:12.367Z,13.00
2019-01-15T13:03:51.985Z,7.13
2019-01-15T13:06:39.171Z,8.33
2019-01-15T13:09:16.279Z,9.30
2019-01-15T13:11:47.117Z,11.00
2019-01-15T13:14:23.949Z,8.73
2019-01-15T13:16:54.797Z,10.67
2019-01-15T13:19:25.657Z,8.87
2019-01-15T13:21:56.579Z,10.47
2019-01-15T13:24:33.667Z,8.77
2019-01-15T13:27:04.503Z,7.47
2019-01-15T13:29:47.399Z,11.57
2019-01-15T13:32:30.021Z,6.77
2019-01-15T13:35:16.141Z,9.33
2019-01-15T13:38:02.975Z,9.27
2019-01-15T13:40:36.821Z,6.30
2019-01-15T13:43:23.963Z,6.63
2019-01-15T13:46:06.611Z,9.00
2019-01-15T13:48:37.464Z,9.03
2019-01-15T13:51:24.615Z,8.97
2019-01-15T13:53:55.482Z,7.73
2019-01-15T13:56:26.327Z,5.97
2019-01-15T13:58:57.460Z,8.70
2019-01-15T14:01:36.998Z,6.77
2019-01-15T14:04:23.150Z,5.63
2019-01-15T14:06:54.016Z,4.13
2019-01-15T14:09:43.200Z,6.43
2019-01-15T14:12:32.416Z,7.27
2019-01-15T14:15:19.643Z,7.37
2019-01-15T14:18:07.939Z,5.73
2019-01-15T14:20:55.022Z,7.00
2019-01-15T14:23:35.007Z,6.03
2019-01-15T14:26:05.885Z,8.13
2019-01-15T14:28:42.464Z,5.60
2019-01-15T14:31:13.403Z,4.40
2019-01-15T14:33:59.623Z,7.40
2019-01-15T14:36:48.434Z,6.57
2019-01-15T14:39:35.389Z,6.77
2019-01-15T14:42:22.691Z,5.50
2019-01-15T14:44:53.532Z,7.30
2019-01-15T14:47:27.129Z,5.07
2019-01-15T14:49:57.961Z,5.20
2019-01-15T14:52:41.053Z,8.00
2019-01-15T14:55:30.441Z,5.20
2019-01-15T14:58:06.963Z,6.67
2019-01-15T15:00:53.864Z,7.27
2019-01-15T15:03:41.039Z,7.23
2019-01-15T15:06:30.043Z,8.80
2019-01-15T15:09:16.951Z,9.37
2019-01-15T15:11:50.941Z,5.60
2019-01-15T15:14:21.880Z,6.60
2019-01-15T15:16:52.737Z,8.83
2019-01-15T15:19:29.596Z,5.60
2019-01-15T15:22:06.172Z,7.30
2019-01-15T15:24:54.631Z,5.87
2019-01-15T15:27:28.450Z,7.63
2019-01-15T15:30:08.557Z,6.17
2019-01-15T15:32:45.279Z,9.70
2019-01-15T15:35:31.145Z,8.10
2019-01-15T15:38:02.012Z,5.40
2019-01-15T15:40:51.008Z,10.70
2019-01-15T15:43:30.613Z,10.07
2019-01-15T15:46:19.577Z,10.33
2019-01-15T15:48:50.433Z,5.90
2019-01-15T15:51:21.269Z,7.60
2019-01-15T15:53:52.144Z,8.47
2019-01-15T15:56:38.144Z,7.60
2019-01-15T15:59:12.139Z,7.53
2019-01-15T16:01:59.466Z,7.97
2019-01-15T16:04:48.647Z,6.87
2019-01-15T16:07:31.743Z,11.13
2019-01-15T16:10:18.184Z,7.10
2019-01-15T16:12:49.028Z,6.77
2019-01-15T16:15:26.067Z,8.00
2019-01-15T16:18:00.021Z,9.03
2019-01-15T16:20:46.015Z,9.40
2019-01-15T16:23:17.365Z,6.00
2019-01-15T16:25:51.028Z,6.60
2019-01-15T16:28:24.914Z,9.80
2019-01-15T16:30:55.764Z,7.77
2019-01-15T16:33:29.583Z,6.97
2019-01-15T16:36:16.679Z,7.80
2019-01-15T16:38:47.555Z,8.37
2019-01-15T16:41:18.398Z,9.00
2019-01-15T16:43:49.561Z,8.00
2019-01-15T16:46:38.635Z,8.00
2019-01-15T16:49:12.720Z,10.37
2019-01-15T16:51:43.690Z,10.40
2019-01-15T16:54:26.762Z,6.43
2019-01-15T16:57:14.009Z,9.20
2019-01-15T16:59:53.906Z,7.47
2019-01-15T17:02:28.058Z,6.00
2019-01-15T17:05:03.004Z,6.73
2019-01-15T17:07:36.607Z,13.10
2019-01-15T17:10:12.379Z,5.77
2019-01-15T17:12:59.451Z,8.23
2019-01-15T17:15:33.121Z,8.77
2019-01-15T17:18:07.219Z,6.20
2019-01-15T17:20:38.431Z,9.30
2019-01-15T17:23:25.529Z,13.07
2019-01-15T17:25:57.359Z,6.13
2019-01-15T17:28:35.124Z,9.17
2019-01-15T17:31:15.263Z,9.73
2019-01-15T17:33:51.948Z,7.90
2019-01-15T17:36:28.500Z,10.80
2019-01-15T17:39:08.171Z,7.03
2019-01-15T17:41:44.787Z,5.80
2019-01-15T17:44:15.658Z,10.63
2019-01-15T17:46:52.273Z,8.90
2019-01-15T17:49:41.204Z,8.97
2019-01-15T17:52:18.222Z,5.30
2019-01-15T17:54:55.117Z,8.40
2019-01-15T17:57:31.729Z,8.00
2019-01-15T18:00:08.870Z,9.10
2019-01-15T18:02:45.810Z,6.77
2019-01-15T18:05:32.949Z,7.20
2019-01-15T18:08:19.048Z,9.07
2019-01-15T18:10:58.771Z,7.23
2019-01-15T18:13:45.827Z,7.20
2019-01-15T18:16:28.632Z,10.60
2019-01-15T18:19:16.178Z,6.07
2019-01-15T18:21:52.804Z,6.30
2019-01-15T18:24:26.374Z,8.13
2019-01-15T18:27:03.256Z,7.73
2019-01-15T18:29:50.649Z,5.17
2019-01-15T18:32:24.227Z,3.70
2019-01-15T18:35:11.426Z,4.40
2019-01-15T18:37:57.703Z,5.63
2019-01-15T18:40:44.955Z,4.30
2019-01-15T18:43:32.053Z,3.70
2019-01-15T18:46:02.923Z,7.87
2019-01-15T18:48:50.325Z,5.90
2019-01-15T18:51:31.572Z,6.57
2019-01-15T18:54:19.755Z,8.10
2019-01-15T18:57:07.450Z,4.47
2019-01-15T18:59:47.463Z,8.37
2019-01-15T19:02:18.329Z,5.00
2019-01-15T19:05:01.326Z,5.73
2019-01-15T19:07:49.188Z,5.47
2019-01-15T19:10:29.098Z,5.13
2019-01-15T19:13:09.311Z,6.17
2019-01-15T19:15:56.377Z,7.37
2019-01-15T19:18:43.781Z,6.53
2019-01-15T19:21:17.866Z,6.07
2019-01-15T19:24:03.896Z,6.03
2019-01-15T19:26:34.755Z,7.00
2019-01-15T19:29:11.716Z,7.23
2019-01-15T19:31:45.164Z,6.00
2019-01-15T19:34:32.726Z,6.10
2019-01-15T19:37:12.729Z,6.10
2019-01-15T19:39:43.591Z,5.17
2019-01-15T19:42:23.955Z,5.00
2019-01-15T19:45:11.155Z,5.20
2019-01-15T19:47:48.568Z,5.30
2019-01-15T19:50:35.638Z,5.23
2019-01-15T19:53:09.667Z,5.20
2019-01-15T19:55:52.591Z,5.00
2019-01-15T19:58:35.404Z,5.53
2019-01-15T20:01:09.352Z,6.17
2019-01-15T20:03:49.237Z,6.43
2019-01-15T20:06:20.458Z,5.20
2019-01-15T20:08:54.072Z,4.50
2019-01-15T20:11:41.479Z,7.10
2019-01-15T20:14:18.350Z,5.43
2019-01-15T20:16:52.265Z,4.73
2019-01-15T20:19:35.395Z,4.10
2019-01-15T20:22:21.246Z,4.00
2019-01-15T20:25:08.394Z,6.90
2019-01-15T20:27:39.288Z,3.90
2019-01-15T20:30:29.080Z,4.47
2019-01-15T20:33:02.950Z,3.50
2019-01-15T20:35:37.041Z,3.73
2019-01-15T20:38:13.923Z,4.60
2019-01-15T20:40:50.829Z,4.53
2019-01-15T20:43:34.241Z,5.17
2019-01-15T20:46:21.771Z,5.90
2019-01-15T20:49:09.355Z,4.03
2019-01-15T20:51:56.442Z,3.07
2019-01-15T20:54:27.340Z,4.70
2019-01-15T20:56:58.170Z,3.47
2019-01-15T20:59:31.736Z,3.37
2019-01-15T21:02:14.706Z,4.33
2019-01-15T21:04:48.307Z,4.00
2019-01-15T21:07:35.656Z,5.30
2019-01-15T21:10:31.522Z,3.47
2019-01-15T21:13:15.823Z,3.30
2019-01-15T21:15:49.346Z,2.90
2019-01-15T21:18:38.532Z,3.07
2019-01-15T21:21:21.369Z,3.03
2019-01-15T21:24:07.277Z,3.33
2019-01-15T21:26:51.106Z,3.50
2019-01-15T21:29:22.304Z,3.13
2019-01-15T21:32:09.466Z,2.70
2019-01-15T21:34:52.357Z,2.77
2019-01-15T21:37:39.906Z,3.07
2019-01-15T21:40:27.491Z,3.53
2019-01-15T21:43:01.614Z,2.90
2019-01-15T21:45:38.273Z,3.20
2019-01-15T21:48:15.363Z,2.87
2019-01-15T21:50:46.506Z,3.30
2019-01-15T21:53:20.254Z,3.30
2019-01-15T21:55:51.088Z,3.30
2019-01-15T21:58:27.662Z,3.87
2019-01-15T22:01:10.564Z,4.80
2019-01-15T22:03:50.699Z,3.00
2019-01-15T22:06:21.564Z,3.27
2019-01-15T22:08:58.344Z,3.43
2019-01-15T22:11:32.139Z,3.83
2019-01-15T22:14:09.024Z,3.10
2019-01-15T22:16:45.696Z,4.90
2019-01-15T22:19:19.538Z,4.30
2019-01-15T22:22:02.721Z,3.13
2019-01-15T22:24:49.113Z,3.70
2019-01-15T22:27:26.072Z,3.10
2019-01-15T22:30:06.114Z,3.20
2019-01-15T22:32:49.074Z,5.00
2019-01-15T22:35:19.922Z,4.60
2019-01-15T22:38:07.070Z,3.73
2019-01-15T22:40:37.931Z,2.83
2019-01-15T22:43:14.827Z,3.73
2019-01-15T22:45:45.991Z,3.07
2019-01-15T22:48:34.971Z,3.33
2019-01-15T22:51:21.002Z,2.13
2019-01-15T22:53:57.378Z,3.27
2019-01-15T22:56:30.932Z,3.83
2019-01-15T22:59:17.994Z,6.00
2019-01-15T23:01:48.994Z,2.77
2019-01-15T23:04:26.274Z,2.60
2019-01-15T23:06:57.125Z,3.00
2019-01-15T23:09:30.930Z,7.67
2019-01-15T23:12:10.524Z,2.90
2019-01-15T23:14:54.615Z,2.70
2019-01-15T23:17:34.637Z,2.47
2019-01-15T23:20:23.283Z,5.63
2019-01-15T23:22:54.236Z,5.40
2019-01-15T23:25:41.224Z,2.67
2019-01-15T23:28:14.772Z,2.53
2019-01-15T23:31:02.245Z,3.67
2019-01-15T23:33:39.054Z,3.00
2019-01-15T23:36:09.922Z,3.10
2019-01-15T23:38:58.800Z,3.37
2019-01-15T23:41:32.648Z,3.50
2019-01-15T23:44:09.434Z,3.70
2019-01-15T23:46:52.238Z,4.53
2019-01-15T23:49:26.047Z,3.43
2019-01-15T23:52:13.533Z,3.67
2019-01-15T23:54:47.430Z,6.90
2019-01-15T23:57:21.089Z,3.10
2019-01-15T23:59:51.947Z,3.70
